X  Zamknij Lotniskowe dane METAR     LIPX Verona-Villafranca Valerio Catullo Airport
Temperatura
13°C Temperatura
5°C Punkt rosy
59% Wilgotność



Wiatr
11 KM/H
7 MPH
3 M/S
6 KTS



100°
E
Warunki bieżące

Częściowe zachmurzenie Częściowe zachmurzenie
Ciśnienie 1008.81 (hPa) - 29.79 (inHg)
Widoczność 6 (mil) - 9.7 (km)
Lotnisko
Kod lotniska LIPX

Położenie: Verona-Villafranca Valerio Catullo Airport
Odległość: 0 (km)

Metar:
LIPX 200920Z 10006KT 070V140 9999 FEW030 13/05 Q1009

Czas: 20-04-2024 09:20 CEST